Strona główna
METAR-TAF:

METAR-TAF

Lotnisko :

Penn Yan Airport

Penn Yan, Nowy Jork, Stany Zjednoczone

Szerokość geograficzna: 42-38-35N, Długość geograficzna: 077-02-58W, wysokość: 275 m

Aktualna obserwacja pogody

Raport powstał 44 minut temu, godzina 08:20 UTC
Wiatr 13 kt od zachód
Temperatura 2°C
Wilgotność 75%
Ciśnienie 1000 hPa
Widzialność: 16.1 km
Przerywane chmury na wysokości 2600 ft
Przerywane chmury na wysokości 3000 ft
Zachmurzenie całkowite na wysokości 6000 ft

METAR: KPEO 150820Z AUTO 26013KT 10SM BKN026 BKN030 OVC060 02/M02 A2953 RMK AO2 T00221022 $

czas: 04:04 (09:04 UTC)


TAF: brakujący

Obserwacja i prognoza pogody dla ponad 4000 lotnisk (raport METAR i TAF).

Dostępne stacje oznaczono żółtymi i czerwonymi punktami na mapie.

Najedź kursorem aby zobaczyć nazwę stacji.

Kliknij aby zobaczyć obserwacje i prognozy pogody.

Aby zmienić mapę: kliknij na zielony przycisk z czarnym krzyżykiem, aby powiększyć; na zielony przycisk z myślnikiem, aby pomniejszyć; na zielone strzałki, aby przejść do map sąsiednich.


METAR-TAF: